Time;durP1;ratioP1;P1;durP2;ratioP2;P2;SDS_P1;SDS_P2;PMS_P1;PMS_P2;Temp;Humidity;BMP_temperature;BMP_pressure;BME280_temperature;BME280_humidity;BME280_pressure;Samples;Min_cycle;Max_cycle;Signal;HPM_P1;HPM_P2
2022/11/22 00:07:28;;;;;;;54.80;31.60;;;;;;;-0.27;88.55;98427.20;434807;1291;142167;-64
2022/11/22 00:17:34;;;;;;;56.00;31.80;;;;;;;-0.22;88.47;98428.23;434783;1288;142643;-63
2022/11/22 00:27:41;;;;;;;52.50;29.80;;;;;;;-0.23;88.54;98431.90;434432;1287;200378;-64
2022/11/22 00:37:46;;;;;;;54.40;30.10;;;;;;;-0.22;88.67;98450.42;435046;1290;143178;-63
2022/11/22 00:47:52;;;;;;;43.30;26.90;;;;;;;-0.36;88.62;98467.30;434013;1291;143425;-63
2022/11/22 00:57:58;;;;;;;49.20;26.50;;;;;;;-0.44;88.63;98478.40;434787;1288;143322;-64
2022/11/22 01:08:03;;;;;;;44.90;26.50;;;;;;;-0.33;88.72;98481.95;434798;1286;144024;-62
2022/11/22 01:18:09;;;;;;;36.90;21.50;;;;;;;-0.25;88.57;98488.05;434137;1287;143567;-63
2022/11/22 01:28:14;;;;;;;49.60;26.80;;;;;;;-0.22;88.23;98493.96;434739;1285;143070;-63
2022/11/22 01:38:20;;;;;;;44.70;25.10;;;;;;;-0.26;88.17;98492.90;434723;1287;145632;-63
2022/11/22 01:48:37;;;;;;;46.40;24.30;;;;;;;-0.15;88.15;98484.21;434037;1286;142706;-63
2022/11/22 01:58:47;;;;;;;41.70;24.50;;;;;;;-0.19;88.11;98486.27;434834;1286;142770;-64
2022/11/22 02:08:59;;;;;;;37.00;20.40;;;;;;;-0.28;87.94;98475.23;433960;1286;142129;-63
2022/11/22 02:19:05;;;;;;;33.70;21.10;;;;;;;-0.48;88.14;98471.86;434763;1280;144966;-63
2022/11/22 02:29:11;;;;;;;35.90;18.30;;;;;;;-0.58;88.24;98467.91;434708;1286;142873;-63
2022/11/22 02:39:21;;;;;;;36.10;19.10;;;;;;;-0.60;88.46;98457.14;434056;1285;146383;-63
2022/11/22 02:49:27;;;;;;;29.90;18.40;;;;;;;-0.57;88.59;98464.27;434774;1287;143551;-63
2022/11/22 02:59:33;;;;;;;38.60;22.40;;;;;;;-0.55;88.75;98459.40;434721;1288;143201;-64
2022/11/22 03:09:39;;;;;;;36.20;23.40;;;;;;;-0.51;88.67;98460.61;434288;1288;211792;-64
2022/11/22 03:19:44;;;;;;;34.30;18.40;;;;;;;-0.44;89.01;98456.08;434628;1285;143983;-64
2022/11/22 03:29:50;;;;;;;36.40;20.70;;;;;;;-0.46;89.09;98439.30;434027;1281;142310;-64
2022/11/22 03:39:56;;;;;;;32.00;18.50;;;;;;;-0.63;89.33;98433.19;434833;1287;142862;-64
2022/11/22 03:50:01;;;;;;;31.00;16.70;;;;;;;-0.77;89.54;98451.92;434829;1282;143791;-64
2022/11/22 04:00:10;;;;;;;30.20;16.90;;;;;;;-0.87;89.95;98454.69;432594;1295;143267;-64
2022/11/22 04:10:16;;;;;;;30.10;17.80;;;;;;;-0.84;90.29;98467.80;434838;1286;143367;-64
2022/11/22 04:41:15;;;;;;;34.50;18.90;;;;;;;-0.72;90.79;98459.81;434789;1284;142967;-65
2022/11/22 05:01:43;;;;;;;35.00;20.40;;;;;;;-0.72;91.40;98448.98;434657;1288;142615;-64
2022/11/22 05:11:49;;;;;;;40.40;22.50;;;;;;;-0.68;91.51;98453.83;434041;1286;143392;-64
2022/11/22 05:21:55;;;;;;;48.10;22.80;;;;;;;-0.64;91.85;98444.75;434595;1287;143374;-64
2022/11/22 05:32:00;;;;;;;35.50;20.20;;;;;;;-0.61;92.23;98448.77;428642;1289;185852;-63
2022/11/22 05:42:06;;;;;;;40.00;20.20;;;;;;;-0.60;92.28;98449.94;423837;1295;142669;-63
2022/11/22 05:52:12;;;;;;;37.80;22.10;;;;;;;-0.61;92.44;98459.42;434827;1286;143197;-64
2022/11/22 06:02:18;;;;;;;36.30;20.60;;;;;;;-0.57;92.64;98466.48;434852;1288;200971;-63
2022/11/22 06:12:23;;;;;;;33.80;19.80;;;;;;;-0.50;92.66;98458.69;422821;1285;142566;-63
2022/11/22 06:22:29;;;;;;;40.40;23.40;;;;;;;-0.45;92.94;98464.16;434746;1278;143587;-63
2022/11/22 06:32:35;;;;;;;37.80;22.10;;;;;;;-0.39;92.95;98469.48;434842;1286;143536;-64
2022/11/22 06:42:41;;;;;;;41.10;21.60;;;;;;;-0.35;93.13;98474.47;434220;1286;206468;-63
2022/11/22 06:52:53;;;;;;;38.40;21.80;;;;;;;-0.27;93.16;98470.73;434660;1281;145085;-62
2022/11/22 07:02:58;;;;;;;40.80;22.60;;;;;;;-0.18;93.14;98482.63;433854;1292;143898;-63
2022/11/22 07:13:04;;;;;;;43.70;24.10;;;;;;;-0.14;93.16;98494.15;434742;1294;142118;-63
2022/11/22 07:23:11;;;;;;;38.40;22.60;;;;;;;-0.10;93.35;98497.64;434805;1288;141901;-63
2022/11/22 07:33:17;;;;;;;48.50;26.30;;;;;;;-0.09;93.27;98507.59;434103;1286;143693;-63
2022/11/22 07:43:22;;;;;;;37.60;23.60;;;;;;;-0.00;93.02;98510.87;434720;1291;190503;-63
2022/11/22 07:53:28;;;;;;;36.60;22.60;;;;;;;0.07;93.25;98513.54;434671;1288;142797;-64
2022/11/22 08:03:34;;;;;;;30.80;20.60;;;;;;;0.09;92.81;98504.15;433971;1285;143348;-64
2022/11/22 08:13:41;;;;;;;35.80;23.20;;;;;;;0.19;92.76;98499.64;434830;1279;142742;-63
2022/11/22 08:23:48;;;;;;;37.00;23.30;;;;;;;0.25;92.59;98510.24;434123;1285;142762;-63
2022/11/22 08:33:53;;;;;;;;;;;;;;;0.24;92.40;98509.58;434790;1282;145150;-63
2022/11/22 08:43:59;;;;;;;33.40;21.40;;;;;;;0.32;92.33;98499.10;435013;1287;128602;-63
2022/11/22 08:54:04;;;;;;;32.70;20.00;;;;;;;0.51;92.07;98504.92;434035;1286;143655;-63
2022/11/22 09:04:10;;;;;;;28.00;18.30;;;;;;;0.62;91.84;98540.32;434814;1286;143247;-63
2022/11/22 09:14:16;;;;;;;28.60;20.80;;;;;;;0.58;91.34;98563.19;434666;1287;147067;-63
2022/11/22 09:24:21;;;;;;;33.30;21.90;;;;;;;0.50;91.55;98572.63;434104;1278;144084;-64
2022/11/22 09:34:27;;;;;;;32.30;23.20;;;;;;;0.59;91.72;98562.31;434799;1280;143625;-63
2022/11/22 09:44:44;;;;;;;35.90;22.20;;;;;;;0.73;91.58;98563.65;434818;1289;145889;-63
2022/11/22 09:54:55;;;;;;;34.60;26.00;;;;;;;0.87;91.72;98532.59;434505;1274;211220;-63
2022/11/22 10:05:03;;;;;;;34.20;24.30;;;;;;;1.06;91.48;98520.08;434753;1289;144612;-63
2022/11/22 10:15:19;;;;;;;30.60;21.00;;;;;;;1.36;91.21;98504.34;434012;1286;146494;-63
2022/11/22 10:25:34;;;;;;;37.20;25.20;;;;;;;1.42;90.76;98504.06;434817;1287;144081;-64
2022/11/22 10:36:05;;;;;;;39.50;25.10;;;;;;;1.35;90.81;98502.83;434092;1286;143352;-64
2022/11/22 10:46:18;;;;;;;34.20;24.40;;;;;;;1.37;90.82;98513.09;434749;1289;143036;-64
2022/11/22 10:56:30;;;;;;;37.50;23.20;;;;;;;1.37;91.03;98522.38;434835;1284;142615;-64
2022/11/22 11:06:39;;;;;;;33.10;21.10;;;;;;;1.39;91.10;98518.52;434079;1287;142380;-64
2022/11/22 11:17:06;;;;;;;34.80;22.10;;;;;;;1.54;91.32;98517.17;434864;1293;143327;-64
2022/11/22 11:27:12;;;;;;;;;;;;;;;1.55;91.31;98495.40;434034;1295;144119;-64
2022/11/22 11:37:26;;;;;;;41.30;25.40;;;;;;;1.52;91.30;98480.70;435104;1288;128975;-64
2022/11/22 11:47:36;;;;;;;39.50;23.80;;;;;;;1.48;91.43;98466.38;434829;1292;144106;-64
2022/11/22 11:57:44;;;;;;;41.50;23.20;;;;;;;1.58;91.56;98458.88;434368;1285;210091;-64
2022/11/22 12:07:50;;;;;;;43.20;24.00;;;;;;;1.64;91.48;98462.89;434879;1288;147686;-64
2022/11/22 12:18:04;;;;;;;34.30;21.80;;;;;;;1.65;91.24;98446.83;434073;1290;142448;-63
2022/11/22 12:28:20;;;;;;;32.70;21.50;;;;;;;1.58;90.95;98439.35;434893;1285;145234;-63
2022/11/22 12:38:31;;;;;;;41.90;25.50;;;;;;;1.44;90.78;98446.73;433606;1288;143673;-64
2022/11/22 12:48:45;;;;;;;37.30;24.90;;;;;;;1.50;90.72;98453.52;433948;1288;200375;-64
2022/11/22 12:59:01;;;;;;;44.30;28.10;;;;;;;1.52;90.49;98458.08;434782;1285;143743;-62
2022/11/22 13:09:11;;;;;;;34.00;23.00;;;;;;;1.33;90.63;98459.96;434140;1290;142089;-63
2022/11/22 13:19:19;;;;;;;34.60;21.60;;;;;;;1.23;90.62;98458.19;434918;1291;142779;-65
2022/11/22 13:29:27;;;;;;;35.70;25.30;;;;;;;1.08;90.87;98453.65;434943;1285;143603;-64
2022/11/22 13:39:36;;;;;;;35.20;25.40;;;;;;;1.00;91.18;98453.63;434175;1285;143179;-62
2022/11/22 13:49:43;;;;;;;34.20;24.90;;;;;;;0.94;91.22;98443.57;434755;1285;143166;-62
2022/11/22 14:00:24;;;;;;;27.70;20.70;;;;;;;0.88;91.19;98432.25;434128;1295;143418;-63
2022/11/22 14:10:34;;;;;;;32.70;22.60;;;;;;;0.70;91.29;98425.97;434810;1285;142748;-63
2022/11/22 14:20:54;;;;;;;31.50;21.40;;;;;;;0.60;91.58;98431.70;434188;1291;142477;-64
2022/11/22 14:31:00;;;;;;;33.10;20.40;;;;;;;0.49;91.83;98444.55;433514;1285;142318;-63
2022/11/22 14:41:40;;;;;;;34.60;21.60;;;;;;;0.43;92.11;98436.03;434718;1285;141295;-66
2022/11/22 14:51:51;;;;;;;38.00;23.80;;;;;;;0.34;92.53;98428.09;434485;1287;144764;-65
2022/11/22 15:02:19;;;;;;;34.20;21.10;;;;;;;0.29;92.99;98428.65;434793;1294;141938;-64
2022/11/22 15:12:55;;;;;;;35.80;21.50;;;;;;;0.20;93.23;98452.94;434167;1288;142502;-64
2022/11/22 15:23:06;;;;;;;32.20;21.80;;;;;;;0.15;93.21;98468.48;434795;1285;145067;-64
2022/11/22 15:33:33;;;;;;;38.10;23.20;;;;;;;0.07;93.51;98474.08;433932;1285;146450;-64
2022/11/22 15:44:03;;;;;;;39.70;24.60;;;;;;;0.07;93.82;98471.70;434769;1291;143492;-64
2022/11/22 15:54:38;;;;;;;36.40;23.00;;;;;;;0.07;94.19;98467.06;433891;1285;143862;-64
2022/11/22 16:05:08;;;;;;;40.00;23.50;;;;;;;-0.02;94.60;98457.40;434824;1287;142185;-64
2022/11/22 16:15:35;;;;;;;34.90;23.70;;;;;;;-0.12;94.96;98469.50;434084;1289;143622;-64
2022/11/22 16:25:44;;;;;;;41.30;23.90;;;;;;;-0.16;95.36;98473.75;434822;1287;143185;-64
2022/11/22 16:35:54;;;;;;;41.90;24.10;;;;;;;-0.15;95.73;98483.55;433819;1286;146503;-64
2022/11/22 16:45:59;;;;;;;48.10;28.30;;;;;;;-0.15;95.95;98488.02;434714;1279;143719;-64
2022/11/22 16:56:06;;;;;;;53.30;29.20;;;;;;;-0.12;96.23;98483.08;425099;1278;143410;-64
2022/11/22 17:06:17;;;;;;;52.40;30.40;;;;;;;-0.10;96.49;98495.95;417312;1286;143236;-63
2022/11/22 17:16:23;;;;;;;46.90;30.40;;;;;;;-0.13;96.81;98502.37;434671;1286;142846;-63
2022/11/22 17:26:31;;;;;;;49.60;30.00;;;;;;;-0.12;96.82;98519.39;426732;1287;143057;-63
2022/11/22 17:36:37;;;;;;;55.40;27.60;;;;;;;-0.11;97.00;98531.20;434050;1285;143794;-64
2022/11/22 17:46:43;;;;;;;45.00;26.50;;;;;;;-0.10;97.01;98525.02;434576;1285;147306;-64
2022/11/22 17:56:49;;;;;;;45.10;28.20;;;;;;;-0.13;97.47;98532.15;433862;1282;143755;-64
2022/11/22 18:06:55;;;;;;;43.60;25.20;;;;;;;-0.15;97.62;98538.75;434502;1286;142978;-64
2022/11/22 18:17:01;;;;;;;49.60;27.90;;;;;;;-0.11;97.95;98533.12;434680;1286;142893;-64
2022/11/22 18:27:07;;;;;;;46.40;27.90;;;;;;;-0.08;98.17;98536.45;433869;1288;144482;-63
2022/11/22 18:37:12;;;;;;;52.30;32.10;;;;;;;-0.05;98.51;98534.78;434611;1281;196071;-64
2022/11/22 18:47:18;;;;;;;49.70;30.40;;;;;;;-0.03;98.30;98523.33;434637;1285;142703;-63
2022/11/22 18:57:24;;;;;;;49.60;33.20;;;;;;;0.02;98.18;98513.02;428795;1287;143553;-65
2022/11/22 19:07:29;;;;;;;46.80;28.10;;;;;;;0.04;97.94;98514.14;426360;1279;142299;-65
2022/11/22 19:17:37;;;;;;;43.60;26.60;;;;;;;0.06;98.05;98515.92;425208;1279;143796;-65
2022/11/22 19:27:46;;;;;;;45.20;28.30;;;;;;;0.09;97.84;98524.59;434168;1289;208754;-64
2022/11/22 19:37:52;;;;;;;42.80;25.80;;;;;;;0.13;97.94;98522.41;430165;1283;144507;-64
2022/11/22 19:47:58;;;;;;;48.50;28.30;;;;;;;0.15;97.94;98517.50;432837;1283;143242;-65
2022/11/22 19:58:04;;;;;;;42.30;26.90;;;;;;;0.18;98.05;98518.25;434635;1279;142740;-64
2022/11/22 20:08:10;;;;;;;49.00;29.50;;;;;;;0.23;97.83;98531.98;434641;1293;143049;-64
2022/11/22 20:18:16;;;;;;;45.10;26.00;;;;;;;0.25;98.02;98548.11;433927;1285;198005;-65
2022/11/22 20:28:21;;;;;;;47.00;28.90;;;;;;;0.26;98.28;98540.34;423540;1280;143061;-63
2022/11/22 20:38:27;;;;;;;47.20;27.10;;;;;;;0.25;98.32;98533.81;417545;1288;143907;-64
2022/11/22 20:48:34;;;;;;;46.00;26.90;;;;;;;0.22;98.42;98535.64;433589;1279;143355;-66
2022/11/22 20:58:40;;;;;;;43.80;24.20;;;;;;;0.22;98.37;98537.17;434652;1288;142622;-65
2022/11/22 21:08:46;;;;;;;40.50;26.30;;;;;;;0.23;98.64;98529.60;433781;1286;142576;-66
2022/11/22 21:18:53;;;;;;;37.60;24.10;;;;;;;0.25;98.69;98535.52;434616;1286;143727;-64
2022/11/22 21:28:58;;;;;;;;;;;;;;;0.27;98.83;98543.20;434735;1272;145383;-65
2022/11/22 21:39:04;;;;;;;35.00;20.80;;;;;;;0.28;99.09;98532.14;419482;1278;128924;-63
2022/11/22 21:49:09;;;;;;;37.90;25.00;;;;;;;0.30;99.11;98535.02;434697;1286;142611;-64
2022/11/22 21:59:16;;;;;;;39.90;26.00;;;;;;;0.34;99.21;98540.70;434711;1285;142458;-64
2022/11/22 22:09:22;;;;;;;39.70;24.50;;;;;;;0.40;99.11;98534.27;425216;1279;204355;-64
2022/11/22 22:19:27;;;;;;;36.20;22.90;;;;;;;0.44;99.29;98534.64;418828;1286;146349;-64
2022/11/22 22:29:33;;;;;;;42.60;25.30;;;;;;;0.46;99.24;98539.73;423405;1281;199667;-65
2022/11/22 22:39:40;;;;;;;46.80;27.00;;;;;;;0.47;99.27;98540.74;423039;1286;213568;-65
2022/11/22 22:49:45;;;;;;;43.30;28.40;;;;;;;0.49;99.26;98545.15;423813;1280;153536;-69
2022/11/22 22:59:51;;;;;;;45.50;26.90;;;;;;;0.48;99.16;98542.95;418321;1279;142347;-70
2022/11/22 23:09:57;;;;;;;46.00;26.10;;;;;;;0.47;99.03;98531.61;427070;1287;142150;-70
2022/11/22 23:20:03;;;;;;;47.50;26.90;;;;;;;0.46;98.98;98528.54;434733;1286;142411;-69
2022/11/22 23:30:10;;;;;;;44.90;25.50;;;;;;;0.45;99.04;98533.76;434142;1286;144286;-69
2022/11/22 23:40:16;;;;;;;43.90;25.10;;;;;;;0.45;98.76;98531.52;428167;1290;145681;-69
2022/11/22 23:50:22;;;;;;;49.80;26.50;;;;;;;0.42;98.79;98542.28;434289;1293;143997;-71
